createdAt,value
2023-03-11T00:01:27.740Z,91.60
2023-03-11T00:03:35.229Z,91.50
2023-03-11T00:05:45.833Z,91.50
2023-03-11T00:07:53.377Z,91.90
2023-03-11T00:10:00.564Z,92.80
2023-03-11T00:12:08.622Z,92.90
2023-03-11T00:14:15.851Z,92.80
2023-03-11T00:16:23.008Z,92.60
2023-03-11T00:18:32.531Z,92.70
2023-03-11T00:20:40.624Z,92.60
2023-03-11T00:22:49.798Z,92.60
2023-03-11T00:24:56.769Z,92.60
2023-03-11T00:27:04.059Z,92.70
2023-03-11T00:29:11.141Z,92.60
2023-03-11T00:31:18.563Z,92.90
2023-03-11T00:33:25.865Z,93.40
2023-03-11T00:35:35.648Z,93.70
2023-03-11T00:37:43.039Z,93.80
2023-03-11T00:39:52.470Z,94.20
2023-03-11T00:41:59.758Z,93.90
2023-03-11T00:44:06.963Z,93.60
2023-03-11T00:46:14.280Z,92.90
2023-03-11T00:48:21.145Z,92.30
2023-03-11T00:50:30.333Z,91.50
2023-03-11T00:52:37.301Z,90.50
2023-03-11T00:54:44.841Z,89.50
2023-03-11T00:56:54.535Z,88.60
2023-03-11T00:59:01.918Z,87.80
2023-03-11T01:01:12.046Z,86.80
2023-03-11T01:03:19.506Z,86.10
2023-03-11T01:05:30.896Z,85.50
2023-03-11T01:07:38.328Z,84.40
2023-03-11T01:09:45.407Z,83.50
2023-03-11T01:11:55.350Z,82.90
2023-03-11T01:14:02.378Z,82.40
2023-03-11T01:16:10.368Z,82.00
2023-03-11T01:18:17.510Z,81.60
2023-03-11T01:20:25.358Z,81.20
2023-03-11T01:22:32.280Z,80.70
2023-03-11T01:24:39.614Z,80.10
2023-03-11T01:26:46.393Z,79.70
2023-03-11T01:28:55.313Z,79.30
2023-03-11T01:31:02.499Z,79.00
2023-03-11T01:33:15.206Z,78.80
2023-03-11T01:35:24.300Z,78.30
2023-03-11T01:37:33.909Z,77.90
2023-03-11T01:39:40.946Z,77.50
2023-03-11T01:41:48.339Z,77.30
2023-03-11T01:43:58.696Z,77.10
2023-03-11T01:46:16.271Z,76.90
2023-03-11T01:48:24.636Z,76.40
2023-03-11T01:50:38.304Z,76.40
2023-03-11T01:52:47.740Z,76.30
2023-03-11T01:54:54.723Z,75.60
2023-03-11T01:57:02.717Z,75.80
2023-03-11T01:59:14.505Z,75.50
2023-03-11T02:01:22.531Z,75.60
2023-03-11T02:03:33.210Z,75.50
2023-03-11T02:05:41.325Z,75.00
2023-03-11T02:07:49.836Z,74.30
2023-03-11T02:09:58.662Z,73.90
2023-03-11T02:12:06.044Z,74.50
2023-03-11T02:14:15.173Z,74.50
2023-03-11T02:16:22.239Z,73.90
2023-03-11T02:18:30.869Z,73.40
2023-03-11T02:20:47.371Z,73.60
2023-03-11T02:22:58.187Z,73.00
2023-03-11T02:25:10.467Z,72.90
2023-03-11T02:27:23.253Z,72.70
2023-03-11T02:29:31.662Z,73.20
2023-03-11T02:31:43.117Z,72.40
2023-03-11T02:33:55.090Z,72.30
2023-03-11T02:36:02.643Z,72.00
2023-03-11T02:38:09.769Z,71.90
2023-03-11T02:40:44.746Z,72.00
2023-03-11T02:42:54.896Z,71.00
2023-03-11T02:45:07.811Z,70.90
2023-03-11T02:47:15.465Z,70.90
2023-03-11T02:49:23.814Z,70.10
2023-03-11T02:51:31.155Z,69.30
2023-03-11T02:53:42.372Z,69.60
2023-03-11T02:55:50.440Z,69.60
2023-03-11T02:57:59.240Z,69.30
2023-03-11T03:00:09.753Z,69.10
2023-03-11T03:02:18.162Z,69.70
2023-03-11T03:04:25.827Z,69.20
2023-03-11T03:06:32.934Z,69.30
2023-03-11T03:08:40.319Z,69.40
2023-03-11T03:10:48.221Z,68.20
2023-03-11T03:12:55.705Z,68.00
2023-03-11T03:15:04.474Z,68.30
2023-03-11T03:17:12.030Z,67.50
2023-03-11T03:19:19.358Z,67.30
2023-03-11T03:21:26.638Z,67.10
2023-03-11T03:23:36.378Z,66.20
2023-03-11T03:25:46.676Z,66.50
2023-03-11T03:27:53.867Z,67.00
2023-03-11T03:30:03.301Z,67.00
2023-03-11T03:32:11.798Z,66.30
2023-03-11T03:34:19.612Z,66.80
2023-03-11T03:36:27.044Z,66.60
2023-03-11T03:38:40.040Z,66.40
2023-03-11T03:40:51.033Z,66.30
2023-03-11T03:43:01.336Z,65.60
2023-03-11T03:45:13.333Z,65.20
2023-03-11T03:47:21.026Z,65.70
2023-03-11T03:49:28.515Z,65.60
2023-03-11T03:51:36.909Z,64.50
2023-03-11T03:53:52.199Z,63.60
2023-03-11T03:55:59.433Z,63.10
2023-03-11T03:58:07.022Z,63.50
2023-03-11T04:00:18.663Z,63.20
2023-03-11T04:02:32.308Z,62.50
2023-03-11T04:04:41.218Z,62.60
2023-03-11T04:06:49.577Z,63.00
2023-03-11T04:08:59.268Z,61.00
2023-03-11T04:11:09.778Z,60.70
2023-03-11T04:13:17.009Z,59.70
2023-03-11T04:15:27.059Z,60.40
2023-03-11T04:17:34.136Z,59.60
2023-03-11T04:19:42.243Z,59.10
2023-03-11T04:21:51.789Z,59.30
2023-03-11T04:24:01.062Z,56.50
2023-03-11T04:26:12.966Z,59.00
2023-03-11T04:28:21.210Z,57.80
2023-03-11T04:30:29.921Z,56.90
2023-03-11T04:32:38.379Z,58.60
2023-03-11T04:34:45.619Z,58.40
2023-03-11T04:36:56.585Z,57.60
2023-03-11T04:39:08.638Z,57.60
2023-03-11T04:41:21.245Z,57.60
2023-03-11T04:43:28.577Z,58.00
2023-03-11T04:45:38.057Z,56.30
2023-03-11T04:47:45.342Z,56.70
2023-03-11T04:49:52.625Z,56.60
2023-03-11T04:51:59.709Z,55.80
2023-03-11T04:54:06.996Z,56.00
2023-03-11T04:56:14.022Z,56.20
2023-03-11T04:58:22.067Z,56.00
2023-03-11T05:00:28.944Z,55.90
2023-03-11T05:02:46.674Z,55.40
2023-03-11T05:04:54.372Z,55.00
2023-03-11T05:07:01.448Z,55.00
2023-03-11T05:09:09.858Z,54.20
2023-03-11T05:11:19.598Z,54.00
2023-03-11T05:13:28.318Z,54.20
2023-03-11T05:15:35.656Z,54.20
2023-03-11T05:17:44.997Z,54.30
2023-03-11T05:19:51.959Z,52.70
2023-03-11T05:22:07.641Z,53.60
2023-03-11T05:24:15.078Z,53.80
2023-03-11T05:26:22.566Z,53.80
2023-03-11T05:28:29.647Z,54.30
2023-03-11T05:30:37.087Z,54.30
2023-03-11T05:32:48.407Z,53.60
2023-03-11T05:34:57.949Z,53.70
2023-03-11T05:37:05.132Z,53.70
2023-03-11T05:39:13.548Z,53.60
2023-03-11T05:41:21.390Z,53.40
2023-03-11T05:43:28.839Z,53.40
2023-03-11T05:45:35.708Z,53.10
2023-03-11T05:47:43.349Z,53.30
2023-03-11T05:49:54.476Z,52.90
2023-03-11T05:52:03.195Z,52.30
2023-03-11T05:54:16.065Z,51.90
2023-03-11T05:56:28.049Z,51.40
2023-03-11T05:58:36.461Z,51.00
2023-03-11T06:00:44.053Z,52.00
2023-03-11T06:02:51.194Z,52.00
2023-03-11T06:05:01.258Z,51.70
2023-03-11T06:07:08.869Z,51.70
2023-03-11T06:09:19.173Z,51.60
2023-03-11T06:11:26.846Z,51.10
2023-03-11T06:13:34.103Z,50.00
2023-03-11T06:15:41.787Z,50.40
2023-03-11T06:17:49.442Z,50.40
2023-03-11T06:19:57.422Z,50.00
2023-03-11T06:22:07.130Z,50.20
2023-03-11T06:24:14.011Z,49.30
2023-03-11T06:26:24.164Z,50.70
2023-03-11T06:28:32.922Z,50.60
2023-03-11T06:30:40.870Z,50.30
2023-03-11T06:32:51.502Z,50.40
2023-03-11T06:34:59.624Z,50.60
2023-03-11T06:37:08.514Z,50.30
2023-03-11T06:39:17.637Z,50.60
2023-03-11T06:41:27.840Z,50.90
2023-03-11T06:43:36.610Z,51.40
2023-03-11T06:45:44.932Z,51.20
2023-03-11T06:47:52.452Z,50.50
2023-03-11T06:50:00.765Z,49.00
2023-03-11T06:52:10.965Z,49.20
2023-03-11T06:54:18.709Z,49.20
2023-03-11T06:56:26.762Z,49.90
2023-03-11T06:58:43.890Z,49.80
2023-03-11T07:00:52.627Z,49.50
2023-03-11T07:02:59.981Z,48.90
2023-03-11T07:05:08.193Z,48.80
2023-03-11T07:07:17.317Z,48.00
2023-03-11T07:09:26.290Z,49.20
2023-03-11T07:11:33.521Z,48.80
2023-03-11T07:13:48.538Z,48.50
2023-03-11T07:16:04.219Z,47.70
2023-03-11T07:18:11.708Z,47.20
2023-03-11T07:20:19.087Z,47.80
2023-03-11T07:22:28.271Z,47.90
2023-03-11T07:24:35.453Z,47.00
2023-03-11T07:26:44.489Z,47.10
2023-03-11T07:28:52.172Z,46.50
2023-03-11T07:30:59.818Z,46.80
2023-03-11T07:33:06.845Z,46.70
2023-03-11T07:35:14.175Z,46.60
2023-03-11T07:37:21.155Z,46.50
2023-03-11T07:39:30.639Z,47.10
2023-03-11T07:41:39.116Z,47.00
2023-03-11T07:43:47.874Z,46.60
2023-03-11T07:45:56.115Z,46.40
2023-03-11T07:48:03.618Z,46.80
2023-03-11T07:50:11.209Z,47.10
2023-03-11T07:52:18.643Z,46.90
2023-03-11T07:54:25.674Z,46.70
2023-03-11T07:56:36.235Z,46.50
2023-03-11T07:58:45.663Z,46.30
2023-03-11T08:00:53.411Z,46.30
2023-03-11T08:03:00.390Z,46.50
2023-03-11T08:05:07.672Z,46.50
2023-03-11T08:07:15.019Z,46.30
2023-03-11T08:09:22.137Z,46.20
2023-03-11T08:11:29.421Z,46.10
2023-03-11T08:13:38.550Z,45.90
2023-03-11T08:15:45.501Z,45.20
2023-03-11T08:17:52.762Z,44.80
2023-03-11T08:19:59.837Z,45.70
2023-03-11T08:22:07.480Z,46.20
2023-03-11T08:24:16.137Z,46.80
2023-03-11T08:26:24.762Z,47.50
2023-03-11T08:28:31.689Z,47.90
2023-03-11T08:30:42.014Z,47.60
2023-03-11T08:32:50.273Z,47.00
2023-03-11T08:34:57.535Z,46.60
2023-03-11T08:37:04.464Z,45.70
2023-03-11T08:39:12.346Z,45.80
2023-03-11T08:41:19.898Z,46.00
2023-03-11T08:43:26.825Z,45.90
2023-03-11T08:45:34.463Z,45.90
2023-03-11T08:47:43.748Z,45.90
2023-03-11T08:49:50.980Z,46.30
2023-03-11T08:51:58.041Z,46.60
2023-03-11T08:54:06.125Z,46.40
2023-03-11T08:56:13.339Z,47.20
2023-03-11T08:58:20.731Z,47.60
2023-03-11T09:00:27.856Z,47.80
2023-03-11T09:02:35.063Z,47.70
2023-03-11T09:04:44.221Z,47.30
2023-03-11T09:06:51.710Z,47.30
2023-03-11T09:08:58.891Z,47.10
2023-03-11T09:11:06.685Z,47.10
2023-03-11T09:13:13.903Z,47.20
2023-03-11T09:15:21.558Z,47.40
2023-03-11T09:17:29.174Z,47.60
2023-03-11T09:19:36.643Z,47.70
2023-03-11T09:21:45.298Z,47.70
2023-03-11T09:23:52.692Z,47.40
2023-03-11T09:25:59.772Z,47.50
2023-03-11T09:28:07.118Z,47.60
2023-03-11T09:30:15.173Z,47.70
2023-03-11T09:32:22.575Z,47.80
2023-03-11T09:34:29.782Z,47.90
2023-03-11T09:36:37.113Z,48.00
2023-03-11T09:38:46.594Z,48.30
2023-03-11T09:41:03.051Z,48.60
2023-03-11T09:43:20.470Z,48.70
2023-03-11T09:45:30.840Z,48.70
2023-03-11T09:47:52.858Z,48.80
2023-03-11T09:50:17.804Z,48.90
2023-03-11T09:52:31.134Z,49.10
2023-03-11T09:54:43.484Z,49.30
2023-03-11T09:56:50.718Z,49.40
2023-03-11T09:59:03.324Z,49.50
2023-03-11T10:01:20.273Z,49.70
2023-03-11T10:03:34.684Z,49.90
2023-03-11T10:05:45.569Z,50.10
2023-03-11T10:07:58.621Z,50.30
2023-03-11T10:10:08.056Z,50.50
2023-03-11T10:12:24.863Z,50.60
2023-03-11T10:14:48.640Z,50.60
2023-03-11T10:17:04.774Z,50.70
2023-03-11T10:19:23.835Z,50.80
2023-03-11T10:21:44.894Z,50.80
2023-03-11T10:24:07.950Z,50.80
2023-03-11T10:26:22.811Z,50.90
2023-03-11T10:28:35.776Z,51.00
2023-03-11T10:30:48.088Z,51.10
2023-03-11T10:33:00.225Z,51.30
2023-03-11T10:35:18.518Z,51.40
2023-03-11T10:37:46.249Z,51.50
2023-03-11T10:39:56.944Z,51.80
2023-03-11T10:42:07.758Z,51.90
2023-03-11T10:44:19.396Z,52.20
2023-03-11T10:46:30.383Z,52.60
2023-03-11T10:48:38.162Z,53.00
2023-03-11T10:50:53.542Z,53.20
2023-03-11T10:53:11.881Z,53.90
2023-03-11T10:55:22.179Z,54.20
2023-03-11T10:57:33.460Z,54.20
2023-03-11T10:59:51.653Z,54.50
2023-03-11T11:02:00.323Z,54.90
2023-03-11T11:04:07.217Z,55.10
2023-03-11T11:06:25.026Z,55.60
2023-03-11T11:08:32.106Z,56.50
2023-03-11T11:10:40.210Z,56.70
2023-03-11T11:13:00.396Z,56.90
2023-03-11T11:15:08.603Z,57.30
2023-03-11T11:17:23.816Z,57.50
2023-03-11T11:19:31.990Z,58.00
2023-03-11T11:21:41.312Z,58.10
2023-03-11T11:23:53.463Z,58.30
2023-03-11T11:26:02.893Z,59.20
2023-03-11T11:28:21.132Z,59.30
2023-03-11T11:30:29.097Z,59.50
2023-03-11T11:32:36.679Z,59.40
2023-03-11T11:34:45.033Z,59.50
2023-03-11T11:36:52.623Z,59.80
2023-03-11T11:39:00.212Z,60.10
2023-03-11T11:41:08.931Z,60.30
2023-03-11T11:43:21.335Z,60.70
2023-03-11T11:45:40.910Z,61.20
2023-03-11T11:47:51.622Z,62.00
2023-03-11T11:50:02.287Z,62.10
2023-03-11T11:52:12.537Z,62.20
2023-03-11T11:54:23.204Z,62.30
2023-03-11T11:56:30.488Z,62.40
2023-03-11T11:58:39.508Z,62.60
2023-03-11T12:00:56.479Z,62.70
2023-03-11T12:03:21.987Z,63.00
2023-03-11T12:05:33.697Z,63.50
2023-03-11T12:08:01.229Z,63.60
2023-03-11T12:10:23.650Z,63.80
2023-03-11T12:12:36.897Z,64.00
2023-03-11T12:14:50.980Z,63.90
2023-03-11T12:17:04.047Z,64.20
2023-03-11T12:19:21.734Z,64.70
2023-03-11T12:21:51.644Z,65.20
2023-03-11T12:24:14.393Z,65.60
2023-03-11T12:26:25.064Z,66.00
2023-03-11T12:28:41.304Z,66.00
2023-03-11T12:30:53.650Z,66.60
2023-03-11T12:33:04.574Z,66.90
2023-03-11T12:35:22.815Z,67.00
2023-03-11T12:37:29.944Z,67.60
2023-03-11T12:39:38.098Z,68.10
2023-03-11T12:41:45.435Z,68.60
2023-03-11T12:44:25.537Z,68.50
2023-03-11T12:47:06.152Z,69.20
2023-03-11T12:49:16.406Z,69.50
2023-03-11T12:51:45.091Z,69.10
2023-03-11T12:53:53.144Z,70.10
2023-03-11T12:56:08.317Z,69.70
2023-03-11T12:58:56.044Z,69.60
2023-03-11T13:01:20.606Z,69.30
2023-03-11T13:03:52.445Z,69.20
2023-03-11T13:06:07.411Z,70.70
2023-03-11T13:08:18.383Z,70.30
2023-03-11T13:10:39.398Z,69.90
2023-03-11T13:12:48.156Z,70.30
2023-03-11T13:15:33.228Z,70.10
2023-03-11T13:17:41.178Z,71.50
2023-03-11T13:19:57.836Z,71.00
2023-03-11T13:22:06.452Z,71.30
2023-03-11T13:24:44.814Z,71.10
2023-03-11T13:26:54.266Z,71.60
2023-03-11T13:29:39.372Z,71.70
2023-03-11T13:32:12.540Z,72.30
2023-03-11T13:34:27.571Z,72.50
2023-03-11T13:36:53.442Z,72.50
2023-03-11T13:39:35.082Z,72.70
2023-03-11T13:41:46.872Z,73.50
2023-03-11T13:43:55.835Z,74.20
2023-03-11T13:46:07.430Z,74.80
2023-03-11T13:48:20.656Z,74.70
2023-03-11T13:50:34.134Z,74.20
2023-03-11T13:52:50.636Z,73.90
2023-03-11T13:55:04.216Z,73.90
2023-03-11T13:57:25.137Z,74.30
2023-03-11T13:59:33.786Z,74.50
2023-03-11T14:01:41.020Z,74.40
2023-03-11T14:03:49.353Z,74.50
2023-03-11T14:06:04.088Z,74.40
2023-03-11T14:08:29.864Z,74.80
2023-03-11T14:10:37.137Z,75.60
2023-03-11T14:12:44.012Z,75.30
2023-03-11T14:14:58.411Z,75.60
2023-03-11T14:17:07.281Z,75.50
2023-03-11T14:19:19.173Z,75.40
2023-03-11T14:21:26.967Z,75.60
2023-03-11T14:23:39.426Z,76.00
2023-03-11T14:25:46.604Z,75.90
2023-03-11T14:27:58.854Z,75.80
2023-03-11T14:30:05.836Z,75.90
2023-03-11T14:32:30.418Z,75.90
2023-03-11T14:34:44.157Z,76.40
2023-03-11T14:36:55.289Z,76.40
2023-03-11T14:39:03.997Z,76.30
2023-03-11T14:41:15.181Z,76.50
2023-03-11T14:43:24.609Z,76.60
2023-03-11T14:45:34.976Z,76.70
2023-03-11T14:47:44.907Z,76.90
2023-03-11T14:49:53.676Z,76.90
2023-03-11T14:52:04.854Z,77.10
2023-03-11T14:54:21.094Z,77.10
2023-03-11T14:56:30.631Z,77.60
2023-03-11T14:58:40.343Z,77.60
2023-03-11T15:00:52.232Z,77.80
2023-03-11T15:03:15.099Z,77.70
2023-03-11T15:05:27.927Z,78.20
2023-03-11T15:07:35.520Z,77.50
2023-03-11T15:09:46.436Z,77.30
2023-03-11T15:11:56.235Z,77.40
2023-03-11T15:14:20.256Z,77.80
2023-03-11T15:16:32.668Z,78.40
2023-03-11T15:18:40.096Z,78.40
2023-03-11T15:20:47.382Z,79.10
2023-03-11T15:23:03.420Z,78.90
2023-03-11T15:25:21.617Z,79.20
2023-03-11T15:27:34.479Z,79.30
2023-03-11T15:29:41.670Z,79.50
2023-03-11T15:31:49.404Z,79.50
2023-03-11T15:33:57.825Z,79.70
2023-03-11T15:36:04.768Z,79.90
2023-03-11T15:38:24.725Z,80.30
2023-03-11T15:40:45.340Z,80.00
2023-03-11T15:43:10.629Z,80.10
2023-03-11T15:45:22.031Z,80.20
2023-03-11T15:47:29.512Z,80.30
2023-03-11T15:49:37.091Z,82.00
2023-03-11T15:51:44.496Z,82.10
2023-03-11T15:53:51.705Z,82.10
2023-03-11T15:56:07.900Z,82.00
2023-03-11T15:58:17.740Z,82.10
2023-03-11T16:00:26.559Z,81.90
2023-03-11T16:02:35.124Z,81.90
2023-03-11T16:04:42.464Z,82.00
2023-03-11T16:06:59.593Z,82.20
2023-03-11T16:09:14.486Z,82.00
2023-03-11T16:11:23.267Z,82.50
2023-03-11T16:13:30.638Z,82.60
2023-03-11T16:15:39.779Z,82.70
2023-03-11T16:17:50.067Z,82.20
2023-03-11T16:19:57.354Z,82.40
2023-03-11T16:22:05.559Z,82.40
2023-03-11T16:24:15.562Z,82.70
2023-03-11T16:26:26.175Z,82.40
2023-03-11T16:28:33.407Z,82.70
2023-03-11T16:30:40.587Z,82.60
2023-03-11T16:32:47.732Z,82.70
2023-03-11T16:34:55.168Z,82.90
2023-03-11T16:37:02.337Z,83.10
2023-03-11T16:39:09.625Z,83.50
2023-03-11T16:41:17.058Z,83.70
2023-03-11T16:43:25.878Z,83.40
2023-03-11T16:45:33.227Z,83.50
2023-03-11T16:47:40.548Z,83.50
2023-03-11T16:49:47.629Z,83.30
2023-03-11T16:51:55.130Z,83.70
2023-03-11T16:54:02.145Z,83.40
2023-03-11T16:56:10.353Z,83.70
2023-03-11T16:58:17.584Z,83.90
2023-03-11T17:00:26.915Z,84.30
2023-03-11T17:02:33.842Z,85.20
2023-03-11T17:04:41.194Z,85.20
2023-03-11T17:06:48.208Z,84.80
2023-03-11T17:08:55.696Z,85.30
2023-03-11T17:11:02.792Z,86.00
2023-03-11T17:13:10.317Z,86.10
2023-03-11T17:15:17.397Z,85.10
2023-03-11T17:17:26.832Z,85.30
2023-03-11T17:19:34.985Z,85.40
2023-03-11T17:21:42.372Z,85.60
2023-03-11T17:23:49.352Z,86.80
2023-03-11T17:25:56.684Z,86.70
2023-03-11T17:28:03.713Z,86.40
2023-03-11T17:30:12.746Z,86.10
2023-03-11T17:32:20.987Z,86.20
2023-03-11T17:34:30.053Z,86.10
2023-03-11T17:36:37.103Z,86.30
2023-03-11T17:38:44.577Z,86.30
2023-03-11T17:40:51.718Z,86.10
2023-03-11T17:42:59.206Z,86.10
2023-03-11T17:45:06.235Z,85.90
2023-03-11T17:47:13.879Z,86.00
2023-03-11T17:49:21.827Z,85.90
2023-03-11T17:51:32.132Z,85.90
2023-03-11T17:53:39.163Z,86.10
2023-03-11T17:55:46.393Z,86.10
2023-03-11T17:57:53.520Z,86.30
2023-03-11T18:00:06.905Z,86.40
2023-03-11T18:02:17.061Z,86.60
2023-03-11T18:04:24.386Z,87.40
2023-03-11T18:06:33.255Z,87.50
2023-03-11T18:08:41.457Z,87.70
2023-03-11T18:10:53.757Z,87.50
2023-03-11T18:13:01.040Z,87.20
2023-03-11T18:15:15.288Z,87.00
2023-03-11T18:17:22.632Z,86.80
2023-03-11T18:19:29.753Z,86.60
2023-03-11T18:21:38.779Z,86.50
2023-03-11T18:23:45.960Z,87.30
2023-03-11T18:25:56.470Z,87.80
2023-03-11T18:28:04.894Z,89.00
2023-03-11T18:30:14.221Z,88.70
2023-03-11T18:32:21.845Z,88.00
2023-03-11T18:34:29.343Z,88.80
2023-03-11T18:36:40.213Z,90.10
2023-03-11T18:38:48.620Z,89.20
2023-03-11T18:41:00.719Z,88.70
2023-03-11T18:43:08.774Z,88.80
2023-03-11T18:45:16.053Z,88.60
2023-03-11T18:47:23.033Z,88.70
2023-03-11T18:49:31.347Z,88.20
2023-03-11T18:51:39.955Z,88.00
2023-03-11T18:53:47.391Z,87.10
2023-03-11T18:55:54.883Z,85.40
2023-03-11T18:58:01.806Z,84.80
2023-03-11T19:00:09.758Z,84.90
2023-03-11T19:02:16.895Z,84.40
2023-03-11T19:04:24.177Z,84.00
2023-03-11T19:06:32.279Z,82.20
2023-03-11T19:08:41.663Z,81.50
2023-03-11T19:10:49.255Z,81.00
2023-03-11T19:12:56.743Z,80.40
2023-03-11T19:15:03.773Z,79.70
2023-03-11T19:17:13.120Z,79.00
2023-03-11T19:19:20.187Z,78.20
2023-03-11T19:21:28.717Z,77.70
2023-03-11T19:23:37.004Z,77.20
2023-03-11T19:26:00.677Z,77.40
2023-03-11T19:28:11.856Z,77.20
2023-03-11T19:30:19.287Z,77.20
2023-03-11T19:32:26.548Z,77.30
2023-03-11T19:34:33.514Z,77.30
2023-03-11T19:36:40.598Z,77.20
2023-03-11T19:38:47.775Z,77.70
2023-03-11T19:41:04.465Z,78.40
2023-03-11T19:43:13.325Z,79.00
2023-03-11T19:45:20.616Z,79.30
2023-03-11T19:47:28.137Z,79.10
2023-03-11T19:49:35.595Z,78.70
2023-03-11T19:51:50.154Z,79.30
2023-03-11T19:53:57.909Z,80.00
2023-03-11T19:56:07.742Z,79.90
2023-03-11T19:58:15.306Z,79.80
2023-03-11T20:00:23.278Z,80.00
2023-03-11T20:02:30.700Z,79.90
2023-03-11T20:04:37.831Z,80.20
2023-03-11T20:06:45.190Z,80.00
2023-03-11T20:08:52.547Z,80.10
2023-03-11T20:11:06.545Z,80.40
2023-03-11T20:13:13.892Z,80.10
2023-03-11T20:15:21.606Z,80.00
2023-03-11T20:17:28.921Z,79.70
2023-03-11T20:19:36.516Z,79.60
2023-03-11T20:21:45.714Z,79.40
2023-03-11T20:23:53.283Z,78.90
2023-03-11T20:26:00.196Z,78.50
2023-03-11T20:28:09.232Z,78.30
2023-03-11T20:30:17.747Z,78.00
2023-03-11T20:32:25.558Z,77.90
2023-03-11T20:34:32.536Z,77.70
2023-03-11T20:36:39.903Z,77.60
2023-03-11T20:38:47.170Z,77.90
2023-03-11T20:40:59.595Z,77.90
2023-03-11T20:43:08.466Z,77.10
2023-03-11T20:45:17.247Z,77.30
2023-03-11T20:47:24.334Z,77.20
2023-03-11T20:49:31.665Z,77.40
2023-03-11T20:51:41.357Z,77.30
2023-03-11T20:53:49.049Z,77.10
2023-03-11T20:55:56.546Z,77.20
2023-03-11T20:58:03.586Z,77.10
2023-03-11T21:00:14.892Z,77.80
2023-03-11T21:02:22.316Z,78.10
2023-03-11T21:04:29.730Z,77.80
2023-03-11T21:06:38.138Z,78.00
2023-03-11T21:08:45.531Z,77.30
2023-03-11T21:10:52.530Z,77.10
2023-03-11T21:12:59.976Z,77.30
2023-03-11T21:15:08.526Z,76.90
2023-03-11T21:17:18.683Z,77.60
2023-03-11T21:19:25.709Z,77.90
2023-03-11T21:21:33.068Z,77.80
2023-03-11T21:23:40.165Z,77.90
2023-03-11T21:25:47.458Z,78.20
2023-03-11T21:27:54.538Z,79.00
2023-03-11T21:30:02.994Z,78.70
2023-03-11T21:32:10.487Z,79.20
2023-03-11T21:34:19.493Z,79.00
2023-03-11T21:36:27.232Z,78.50
2023-03-11T21:38:35.171Z,78.30
2023-03-11T21:40:42.259Z,79.00
2023-03-11T21:42:49.671Z,79.50
2023-03-11T21:44:56.647Z,79.70
2023-03-11T21:47:04.196Z,79.90
2023-03-11T21:49:11.519Z,79.90
2023-03-11T21:51:21.916Z,79.80
2023-03-11T21:53:29.168Z,80.00
2023-03-11T21:55:37.349Z,80.30
2023-03-11T21:57:44.527Z,80.30
2023-03-11T21:59:52.221Z,80.30
2023-03-11T22:02:02.241Z,80.30
2023-03-11T22:04:09.903Z,80.30
2023-03-11T22:06:18.854Z,80.80
2023-03-11T22:08:26.026Z,80.60
2023-03-11T22:10:34.070Z,80.70
2023-03-11T22:12:41.481Z,81.10
2023-03-11T22:14:51.611Z,81.20
2023-03-11T22:16:59.089Z,81.10
2023-03-11T22:19:09.771Z,81.40
2023-03-11T22:21:19.884Z,81.40
2023-03-11T22:23:26.955Z,81.40
2023-03-11T22:25:34.346Z,81.00
2023-03-11T22:27:41.731Z,81.10
2023-03-11T22:29:48.913Z,81.40
2023-03-11T22:31:55.814Z,81.60
2023-03-11T22:34:03.121Z,81.60
2023-03-11T22:36:11.112Z,81.80
2023-03-11T22:38:20.101Z,81.50
2023-03-11T22:40:27.238Z,81.70
2023-03-11T22:42:34.420Z,81.70
2023-03-11T22:44:41.648Z,81.60
2023-03-11T22:46:49.033Z,81.60
2023-03-11T22:48:55.960Z,81.90
2023-03-11T22:51:03.299Z,81.40
2023-03-11T22:53:10.468Z,81.60
2023-03-11T22:55:19.501Z,81.90
2023-03-11T22:57:26.479Z,82.00
2023-03-11T22:59:33.711Z,81.90
2023-03-11T23:01:40.691Z,81.90
2023-03-11T23:03:48.225Z,82.00
2023-03-11T23:05:55.154Z,81.90
2023-03-11T23:08:02.612Z,82.30
2023-03-11T23:10:11.310Z,82.40
2023-03-11T23:12:20.078Z,82.20
2023-03-11T23:14:37.819Z,82.00
2023-03-11T23:16:49.455Z,82.10
2023-03-11T23:18:58.264Z,82.10
2023-03-11T23:21:05.552Z,82.50
2023-03-11T23:23:12.984Z,82.90
2023-03-11T23:25:20.574Z,83.20
2023-03-11T23:27:29.399Z,83.40
2023-03-11T23:29:36.934Z,83.40
2023-03-11T23:31:43.963Z,83.80
2023-03-11T23:33:51.554Z,83.40
2023-03-11T23:36:02.811Z,83.30
2023-03-11T23:38:10.155Z,83.40
2023-03-11T23:40:17.553Z,83.80
2023-03-11T23:42:26.328Z,83.80
2023-03-11T23:44:35.296Z,84.10
2023-03-11T23:46:42.477Z,84.00
2023-03-11T23:48:49.304Z,83.80
2023-03-11T23:50:56.692Z,83.80
2023-03-11T23:53:03.616Z,83.80
2023-03-11T23:55:12.186Z,83.90
2023-03-11T23:57:19.284Z,83.80
2023-03-11T23:59:26.438Z,84.00
